Flight Track Log - Related Links

Times and Time Zones

All times are in EDT time to prevent confusion due to time zone crossing. See the UAL252 flight status page for this flight to view local times or setup timezone preferences in your user account.

Time Position Orientation Groundspeed Altitude Reporting Facility
EDT Latitude Longitude Course Direction KTS MPH feet Rate Location/Type
Mon 06:12:13 PM 39.8833 -104.5833 123° Southeast 176 203 6,700  Level Denver TRACON
Mon 06:13:13 PM 39.8500 -104.5167 123° Southeast 228 262 8,400 2,000 Climbing Denver TRACON
Mon 06:14:07 PM 39.8333 -104.4500 108° East 263 303 10,500 2,550 Climbing Denver TRACON
Mon 06:15:13 PM 39.7833 -104.3333 119° Southeast 311 358 13,500 2,512 Climbing Denver TRACON
Mon 06:16:16 PM 39.7497 -104.2208 111° Southeast 331 381 15,900 2,064 Climbing Denver Center
Mon 06:17:18 PM 39.7086 -104.1067 115° Southeast 348 400 17,800 1,839 Climbing Denver Center
Mon 06:18:20 PM 39.6614 -103.9664 114° Southeast 397 457 19,700 1,809 Climbing Denver Center
Mon 06:19:34 PM 39.5942 -103.8058 118° Southeast 417 480 21,900 1,485 Climbing Denver Center
Mon 06:21:00 PM 39.5451 -103.6318 109° East  Level FlightAware Approximate
Mon 06:21:38 PM 39.5186 -103.5186 109° East 432 497 24,600  Level Denver Center
Mon 06:23:00 PM 39.4744 -103.3521 110° East  Level FlightAware Approximate
Mon 06:23:41 PM 39.4381 -103.2111 110° East 448 516 27,700  Level Denver Center
Mon 06:24:43 PM 39.3872 -103.0200 109° East 474 545 29,000 1,452 Climbing Denver Center
Mon 06:25:45 PM 39.3425 -102.8547 109° East 482 555 30,700 1,514 Climbing Denver Center
Mon 06:28:13 PM 39.2350 -102.4556 109° East 473 544 34,300 1,484 Climbing Kansas City Center
Mon 06:28:51 PM 39.2133 -102.3814 111° Southeast 471 542 35,300 1,006 Climbing Denver Center
Mon 06:30:54 PM 39.1197 -102.0644 111° Southeast 458 527 37,000 551 Climbing Denver Center
Mon 06:31:56 PM 39.0300 -101.9228 129° Southeast 458 527 37,000 48 Level Denver Center
Mon 06:32:58 PM 38.9372 -101.8217 140° Southeast 455 524 37,100 435 Climbing Denver Center
Mon 06:34:00 PM 38.8306 -101.7036 139° Southeast 455 524 37,900 616 Climbing Denver Center
Mon 06:35:00 PM 38.7529 -101.6215 140° Southeast  Level FlightAware Approximate
Mon 06:36:03 PM 38.6456 -101.5025 140° Southeast 454 522 39,000  Level Denver Center
Mon 06:37:05 PM 38.5364 -101.3847 140° Southeast 459 528 39,000  Level Denver Center
Mon 06:38:07 PM 38.4425 -101.2842 140° Southeast 461 531 39,000  Level Denver Center
Mon 06:39:08 PM 38.3342 -101.1678 140° Southeast 455 524 39,000  Level Denver Center
Mon 06:41:12 PM 38.1286 -100.9589 141° Southeast 454 522 39,000  Level Denver Center
Mon 06:42:14 PM 38.0197 -100.8950 155° Southeast 448 516 39,000  Level Denver Center
Mon 06:43:42 PM 37.8567 -100.7958 154° Southeast 449 517 39,000  Level Kansas City Center
Mon 06:45:00 PM 37.7193 -100.7215 157° South  Level FlightAware Approximate
Mon 06:45:46 PM 37.6128 -100.6497 157° South 458 527 39,000  Level Kansas City Center
Mon 06:46:48 PM 37.5006 -100.5822 154° Southeast 461 531 39,000  Level Kansas City Center
Mon 06:47:50 PM 37.3708 -100.5064 155° Southeast 461 531 39,000  Level Kansas City Center
Mon 06:48:52 PM 37.2581 -100.4408 155° Southeast 462 532 39,000  Level Kansas City Center
Mon 06:49:54 PM 37.1281 -100.3631 154° Southeast 463 533 39,000  Level Kansas City Center
Mon 06:50:56 PM 37.0164 -100.2975 155° Southeast 462 532 39,000  Level Kansas City Center
Mon 06:51:58 PM 36.8872 -100.2219 155° Southeast 459 528 39,000  Level Kansas City Center
Mon 06:53:00 PM 36.7788 -100.1615 156° South  Level FlightAware Approximate
Mon 06:54:02 PM 36.6472 -100.0808 156° South 459 528 39,000  Level Kansas City Center
Mon 06:56:00 PM 36.4401 -99.9682 156° South  Level FlightAware Approximate
Mon 06:57:08 PM 36.2947 -99.8786 156° South 461 531 39,000  Level Kansas City Center
Mon 06:59:28 PM 36.0353 -99.7308 155° Southeast 461 531 39,000  Level Fort Worth Center
Mon 07:00:14 PM 35.9425 -99.6769 155° Southeast 464 534 39,000  Level Kansas City Center
Mon 07:01:16 PM 35.8275 -99.6117 155° Southeast 460 529 39,000 -435 Level Kansas City Center
Mon 07:02:18 PM 35.6842 -99.5508 161° South 460 529 38,100 -968 Descending Kansas City Center
Mon 07:03:20 PM 35.5697 -99.5389 175° South 425 489 37,000 -357 Descending Kansas City Center
Mon 07:05:23 PM 35.3422 -99.5133 175° South 414 476 37,000 -287 Level Kansas City Center
Mon 07:06:28 PM 35.2114 -99.4972 174° South 423 487 36,100 -480 Descending Fort Worth Center
Mon 07:07:28 PM 35.0969 -99.4867 176° South 423 487 36,000 -50 Descending Fort Worth Center
Mon 07:08:28 PM 34.9844 -99.4764 176° South 423 487 36,000  Level Fort Worth Center
Mon 07:09:28 PM 34.8681 -99.4633 175° South 423 487 36,000  Level Fort Worth Center
Mon 07:10:28 PM 34.7533 -99.4506 175° South 423 487 36,000  Level Fort Worth Center
Mon 07:11:28 PM 34.6394 -99.3997 160° South 421 484 36,000 -300 Level Fort Worth Center
Mon 07:13:28 PM 34.4800 -99.1744 131° Southeast 425 489 35,100 -633 Descending Fort Worth Center
Mon 07:14:28 PM 34.4022 -99.0647 131° Southeast 430 495 34,100 -1,000 Descending Fort Worth Center
Mon 07:16:00 PM 34.2749 -98.9195 137° Southeast  Level FlightAware Approximate
Mon 07:17:28 PM 34.1622 -98.7161 127° Southeast 446 513 31,100  Level Fort Worth Center
Mon 07:18:28 PM 34.0864 -98.6022 129° Southeast 446 513 30,200 -1,000 Descending Fort Worth Center
Mon 07:19:28 PM 33.9997 -98.4783 130° Southeast 458 527 29,100 -1,050 Descending Fort Worth Center
Mon 07:20:28 PM 33.9172 -98.3597 130° Southeast 472 543 28,100 -1,300 Descending Fort Worth Center
Mon 07:22:28 PM 33.7558 -98.1306 130° Southeast 459 528 25,200 -1,700 Descending Fort Worth Center
Mon 07:23:00 PM 33.7555 -98.1988 127° Southeast  Level FlightAware Approximate
Mon 07:23:28 PM 33.6875 -98.0350 131° Southeast 435 501 23,000  Level Fort Worth Center
Mon 07:24:28 PM 33.6150 -97.9322 130° Southeast 408 470 20,600 -2,600 Descending Fort Worth Center
Mon 07:25:28 PM 33.5361 -97.8247 131° Southeast 397 457 17,800 -2,633 Descending Fort Worth Center
Mon 07:27:28 PM 33.3947 -97.6597 136° Southeast 350 403 12,700 -2,167 Descending Fort Worth Center
Mon 07:28:28 PM 33.3300 -97.5800 134° Southeast 344 396 11,300 -567 Descending Fort Worth Center
Mon 07:30:28 PM 33.2092 -97.4383 136° Southeast 304 350 11,000 -73 Descending Fort Worth Center
Mon 07:32:34 PM 33.0833 -97.2833 134° Southeast 303 349 11,000  Level Dallas / Fort Worth TRACON
Mon 07:33:34 PM 33.0333 -97.2167 132° Southeast 267 307 11,000  Level Dallas / Fort Worth TRACON
Mon 07:34:28 PM 32.9792 -97.1756 148° Southeast 267 307 11,000 -789 Level Fort Worth Center
Mon 07:35:28 PM 32.9083 -97.1708 177° South 234 269 9,500 -1,533 Descending Fort Worth Center
Mon 07:37:28 PM 32.7683 -97.1714 180° South 249 287 6,400 -1,625 Descending Fort Worth Center
Mon 07:38:40 PM 32.7333 -97.1000 120° Southeast 234 269 4,300 -1,522 Descending Dallas / Fort Worth TRACON
Mon 07:39:46 PM 32.7667 -97.0500 52° Northeast 191 220 2,900 -1,143 Descending Dallas / Fort Worth TRACON
Mon 07:40:46 PM 32.8167 -97.0500 360° North 145 167 1,900 -900 Descending Dallas / Fort Worth TRACON
Mon 07:41:46 PM 32.8500 -97.0500 360° North 137 158 1,100 -800 Descending Dallas / Fort Worth TRACON

Login

Don't have an account? Register now (free) for customized features, flight alerts, and more!